Time;durP1;ratioP1;P1;durP2;ratioP2;P2;SDS_P1;SDS_P2;PMS_P1;PMS_P2;Temp;Humidity;BMP_temperature;BMP_pressure;BME280_temperature;BME280_humidity;BME280_pressure;Samples;Min_cycle;Max_cycle;Signal;HPM_P1;HPM_P2
2023/11/24 00:00:55;;;;;;;7.95;4.93;;;9.90;96.70;;;;;;4868438;29;20561;-69
2023/11/24 00:03:24;;;;;;;7.07;4.90;;;10.00;96.70;;;;;;4860196;29;20069;-68
2023/11/24 00:05:52;;;;;;;9.45;5.65;;;10.00;96.70;;;;;;4859256;29;20061;-68
2023/11/24 00:08:22;;;;;;;7.13;5.00;;;10.10;96.70;;;;;;4858516;29;20050;-68
2023/11/24 00:10:51;;;;;;;7.72;4.78;;;10.00;96.70;;;;;;4861928;29;20657;-68
2023/11/24 00:13:22;;;;;;;7.07;4.95;;;9.90;96.70;;;;;;4859362;29;20076;-68
2023/11/24 00:15:52;;;;;;;10.43;5.60;;;9.90;96.70;;;;;;4871661;29;20604;-68
2023/11/24 00:18:23;;;;;;;8.65;5.38;;;9.90;96.70;;;;;;4872582;29;20077;-68
2023/11/24 00:21:47;;;;;;;8.82;6.13;;;9.90;96.70;;;;;;4800665;29;20460;-68
2023/11/24 00:24:35;;;;;;;6.90;5.15;;;9.90;96.70;;;;;;4800753;29;20066;-68
2023/11/24 00:27:17;;;;;;;7.82;4.78;;;9.90;96.70;;;;;;4756106;29;20074;-68
2023/11/24 00:31:05;;;;;;;7.20;5.30;;;9.90;96.70;;;;;;4800389;29;20569;-68
2023/11/24 00:33:34;;;;;;;7.13;5.07;;;9.90;96.70;;;;;;4800860;29;20150;-68
2023/11/24 00:36:05;;;;;;;6.70;4.57;;;9.90;96.70;;;;;;4810045;29;20089;-68
2023/11/24 00:38:36;;;;;;;9.27;5.32;;;9.80;96.70;;;;;;4836960;29;20145;-68
2023/11/24 00:41:15;;;;;;;8.40;5.10;;;9.80;96.70;;;;;;4835814;29;20613;-67
2023/11/24 00:43:45;;;;;;;6.88;5.28;;;9.70;96.70;;;;;;4831909;29;20166;-68
2023/11/24 00:46:17;;;;;;;7.95;5.00;;;9.70;96.70;;;;;;4836613;29;20061;-68
2023/11/24 00:48:45;;;;;;;8.55;6.03;;;9.70;96.70;;;;;;4832950;29;20065;-67
2023/11/24 00:51:17;;;;;;;8.43;5.55;;;9.70;96.70;;;;;;4833104;29;20087;-67
2023/11/24 00:53:51;;;;;;;9.05;5.55;;;9.80;96.70;;;;;;4830059;29;20609;-68
2023/11/24 00:57:15;;;;;;;8.80;5.50;;;9.90;96.70;;;;;;4821364;29;20058;-68
2023/11/24 01:00:03;;;;;;;8.35;5.65;;;9.90;96.70;;;;;;4855771;29;20520;-68
2023/11/24 01:06:03;;;;;;;8.23;5.03;;;9.90;96.70;;;;;;4873857;29;20049;-68
2023/11/24 01:08:34;;;;;;;7.35;5.25;;;9.80;96.70;;;;;;4893641;29;20135;-67
2023/11/24 01:11:02;;;;;;;9.60;5.68;;;9.90;96.70;;;;;;4891949;29;20049;-68
2023/11/24 01:13:32;;;;;;;8.45;5.35;;;9.80;96.70;;;;;;4888812;29;20067;-67
2023/11/24 01:16:04;;;;;;;6.40;4.72;;;9.70;96.70;;;;;;4890011;29;20061;-68
2023/11/24 01:18:37;;;;;;;7.57;5.13;;;9.60;96.70;;;;;;4892402;29;20043;-67
2023/11/24 01:21:09;;;;;;;7.95;5.43;;;9.60;96.70;;;;;;4893335;29;20067;-68
2023/11/24 01:23:40;;;;;;;8.18;5.40;;;9.60;96.70;;;;;;4883436;29;20957;-67
2023/11/24 01:26:11;;;;;;;6.28;4.35;;;9.60;96.70;;;;;;4897249;29;20057;-68
2023/11/24 01:31:59;;;;;;;6.13;4.13;;;9.60;96.70;;;;;;4855907;29;20089;-69
2023/11/24 01:35:04;;;;;;;5.50;3.70;;;9.50;96.70;;;;;;4836434;29;20545;-68
2023/11/24 01:37:51;;;;;;;;;;;;;;;;;;;;;
2023/11/24 01:41:03;;;;;;;4.40;3.35;;;9.40;96.70;;;;;;4844975;29;20065;-68
2023/11/24 01:44:15;;;;;;;6.47;4.03;;;9.30;96.70;;;;;;4836650;29;20129;-68
2023/11/24 01:46:46;;;;;;;7.07;4.25;;;9.30;96.70;;;;;;4849377;29;20064;-68
2023/11/24 01:49:16;;;;;;;5.53;3.80;;;9.20;96.70;;;;;;4854019;29;20440;-68
2023/11/24 01:51:48;;;;;;;6.70;4.05;;;9.00;96.70;;;;;;4852441;29;20117;-68
2023/11/24 01:54:19;;;;;;;6.38;4.35;;;9.00;96.70;;;;;;4828911;29;20813;-72
2023/11/24 01:56:47;;;;;;;6.03;4.28;;;9.00;96.70;;;;;;4852860;29;20057;-72
2023/11/24 01:59:15;;;;;;;6.22;3.97;;;9.10;96.70;;;;;;4852097;29;20065;-72
2023/11/24 02:01:51;;;;;;;6.05;4.15;;;9.00;96.70;;;;;;4836621;29;20500;-72
2023/11/24 02:04:45;;;;;;;6.70;4.13;;;9.00;96.70;;;;;;4837812;29;20185;-68
2023/11/24 02:07:15;;;;;;;5.43;4.13;;;9.00;96.70;;;;;;4853558;29;20049;-67
2023/11/24 02:09:57;;;;;;;;;;;;;;;;;;;;;
2023/11/24 02:12:35;;;;;;;8.20;4.43;;;9.00;96.70;;;;;;4886568;29;20041;-68
2023/11/24 02:15:08;;;;;;;5.55;3.80;;;9.10;96.70;;;;;;4884672;29;20044;-68
2023/11/24 02:17:44;;;;;;;6.05;4.20;;;9.10;96.70;;;;;;4892032;29;20456;-68
2023/11/24 02:20:15;;;;;;;7.25;4.30;;;9.10;96.70;;;;;;4881291;29;20045;-67
2023/11/24 02:22:44;;;;;;;9.68;4.63;;;9.10;96.70;;;;;;4893247;29;20045;-67
2023/11/24 02:25:15;;;;;;;6.63;3.80;;;9.10;96.70;;;;;;4884167;29;20040;-68
2023/11/24 02:27:43;;;;;;;6.93;4.53;;;9.10;96.70;;;;;;4870951;29;20140;-68
2023/11/24 02:30:12;;;;;;;6.70;4.35;;;9.10;96.70;;;;;;4887388;29;20040;-68
2023/11/24 02:32:40;;;;;;;6.20;4.10;;;9.00;96.70;;;;;;4891057;29;20061;-67
2023/11/24 02:35:09;;;;;;;6.63;3.78;;;9.00;96.70;;;;;;4891985;29;20100;-68
2023/11/24 02:37:41;;;;;;;5.28;3.45;;;8.90;96.70;;;;;;4889005;29;20049;-68
2023/11/24 02:40:11;;;;;;;5.47;3.45;;;9.00;96.70;;;;;;4890103;29;20051;-68
2023/11/24 02:42:43;;;;;;;7.25;3.63;;;9.00;96.70;;;;;;4888732;29;20053;-68
2023/11/24 02:45:56;;;;;;;4.88;3.55;;;8.90;96.70;;;;;;4872313;29;20056;-68
2023/11/24 02:48:57;;;;;;;5.32;3.60;;;8.90;96.70;;;;;;4888431;29;20064;-68
2023/11/24 02:51:25;;;;;;;5.22;3.42;;;8.90;96.70;;;;;;4887080;29;20060;-72
2023/11/24 02:55:01;;;;;;;7.05;3.90;;;8.80;96.70;;;;;;4845994;29;20584;-67
2023/11/24 02:57:32;;;;;;;6.28;3.38;;;8.70;96.70;;;;;;4846319;29;20054;-67
2023/11/24 03:01:16;;;;;;;5.50;3.03;;;8.60;96.70;;;;;;4849904;29;20084;-68
2023/11/24 03:03:44;;;;;;;6.97;3.50;;;8.60;96.70;;;;;;4850146;29;21325;-68
2023/11/24 03:06:17;;;;;;;6.00;3.28;;;8.60;96.70;;;;;;4852958;29;20149;-68
2023/11/24 03:15:47;;;;;;;4.82;3.47;;;8.70;96.70;;;;;;4843760;29;20095;-68
2023/11/24 03:18:16;;;;;;;5.57;3.33;;;8.60;96.70;;;;;;4837006;29;20125;-68
2023/11/24 03:20:49;;;;;;;7.60;3.67;;;8.60;96.70;;;;;;4848938;29;20671;-68
2023/11/24 03:23:46;;;;;;;5.47;3.65;;;8.60;96.70;;;;;;4851948;29;20394;-68
2023/11/24 03:33:26;;;;;;;5.72;3.70;;;8.50;96.70;;;;;;4891972;29;20049;-67
2023/11/24 03:37:19;;;;;;;6.35;3.85;;;8.40;96.70;;;;;;4888753;29;20057;-69
2023/11/24 03:42:44;;;;;;;5.28;3.85;;;8.50;96.70;;;;;;4879950;29;20509;-68
2023/11/24 03:45:15;;;;;;;6.70;3.53;;;8.50;96.70;;;;;;4882061;29;20381;-67
2023/11/24 03:47:44;;;;;;;9.38;4.38;;;8.40;96.70;;;;;;4885609;29;20454;-68
2023/11/24 03:50:23;;;;;;;7.15;4.15;;;8.30;96.70;;;;;;4888851;29;20049;-67
2023/11/24 03:53:19;;;;;;;6.10;3.97;;;8.20;96.70;;;;;;4895486;29;20059;-69
2023/11/24 03:55:48;;;;;;;6.43;3.67;;;8.20;96.70;;;;;;4904780;29;20052;-68
2023/11/24 03:58:17;;;;;;;4.95;3.42;;;8.30;96.70;;;;;;4891206;29;20053;-68
2023/11/24 04:00:55;;;;;;;5.43;3.65;;;8.30;96.70;;;;;;4890581;29;20040;-68
2023/11/24 04:03:29;;;;;;;7.40;3.13;;;8.30;96.70;;;;;;4889801;29;20052;-68
2023/11/24 04:06:09;;;;;;;6.32;3.58;;;8.30;96.70;;;;;;4895616;29;20304;-68
2023/11/24 04:09:25;;;;;;;4.50;3.17;;;8.30;96.70;;;;;;4892087;29;20426;-68
2023/11/24 04:12:16;;;;;;;4.93;3.28;;;8.20;96.70;;;;;;4890124;29;20423;-68
2023/11/24 04:14:45;;;;;;;4.68;2.80;;;8.10;96.70;;;;;;4886457;29;20144;-67
2023/11/24 04:17:17;;;;;;;4.55;3.22;;;8.00;96.70;;;;;;4890236;29;20040;-68
2023/11/24 04:20:34;;;;;;;7.03;3.40;;;8.00;96.70;;;;;;4829595;29;20069;-68
2023/11/24 04:23:13;;;;;;;4.72;3.15;;;8.00;96.70;;;;;;4836514;29;20461;-68
2023/11/24 04:25:48;;;;;;;4.55;3.10;;;8.00;96.70;;;;;;4885205;29;20048;-68
2023/11/24 04:28:17;;;;;;;3.75;2.75;;;7.90;96.70;;;;;;4887675;29;20048;-67
2023/11/24 04:31:09;;;;;;;3.60;2.90;;;7.90;96.70;;;;;;4895039;29;20053;-68
2023/11/24 04:33:46;;;;;;;4.95;3.25;;;7.90;96.70;;;;;;4888157;29;20524;-68
2023/11/24 04:37:39;;;;;;;7.38;3.33;;;7.90;96.70;;;;;;4854712;29;20241;-67
2023/11/24 04:45:05;;;;;;;8.48;3.20;;;8.00;96.70;;;;;;4744059;30;20114;-67
2023/11/24 04:47:58;;;;;;;6.45;3.15;;;7.90;96.70;;;;;;4780773;29;20054;-68
2023/11/24 04:50:42;;;;;;;6.10;3.05;;;7.90;96.70;;;;;;4818329;29;20511;-67
2023/11/24 04:53:15;;;;;;;5.28;3.30;;;7.90;96.70;;;;;;4814349;29;20530;-67
2023/11/24 04:56:23;;;;;;;5.22;3.03;;;7.80;96.70;;;;;;4818611;29;20143;-67
2023/11/24 04:59:40;;;;;;;4.90;2.83;;;7.80;96.70;;;;;;4786296;29;20072;-68
2023/11/24 05:02:51;;;;;;;6.45;2.55;;;8.00;96.70;;;;;;4783385;29;20055;-67
2023/11/24 05:05:20;;;;;;;3.88;2.72;;;7.90;96.70;;;;;;4783792;29;20047;-67
2023/11/24 05:12:08;;;;;;;3.38;2.45;;;7.80;96.70;;;;;;4777274;29;20570;-67
2023/11/24 05:17:57;;;;;;;6.45;2.60;;;7.80;96.70;;;;;;4818280;29;20460;-67
2023/11/24 05:20:26;;;;;;;4.80;2.63;;;7.70;96.70;;;;;;4831408;29;20069;-68
2023/11/24 05:23:15;;;;;;;7.57;3.33;;;7.70;96.70;;;;;;4854280;29;20555;-67
2023/11/24 05:25:44;;;;;;;4.93;3.00;;;7.70;96.70;;;;;;4853056;29;21244;-67
2023/11/24 05:28:16;;;;;;;4.68;2.90;;;7.80;96.70;;;;;;4852750;29;20045;-67
2023/11/24 05:30:45;;;;;;;4.95;2.92;;;7.80;96.70;;;;;;4849400;29;20533;-69
2023/11/24 05:33:15;;;;;;;3.92;2.80;;;7.80;96.70;;;;;;4839225;29;20081;-67
2023/11/24 05:35:44;;;;;;;5.28;2.90;;;7.80;96.70;;;;;;4872213;29;20067;-67
2023/11/24 05:38:12;;;;;;;4.45;3.20;;;7.80;96.70;;;;;;4892328;29;20485;-67
2023/11/24 05:40:45;;;;;;;5.30;3.42;;;7.90;96.70;;;;;;4891252;29;20041;-67
2023/11/24 05:43:14;;;;;;;5.55;3.40;;;7.90;96.70;;;;;;4886608;29;20056;-67
2023/11/24 05:45:43;;;;;;;5.68;3.00;;;7.80;96.70;;;;;;4892883;29;20389;-67
2023/11/24 05:48:22;;;;;;;5.45;3.60;;;7.80;96.70;;;;;;4899118;29;20464;-66
2023/11/24 05:51:00;;;;;;;6.40;3.40;;;7.80;96.70;;;;;;4888891;29;20072;-67
2023/11/24 05:56:41;;;;;;;5.60;3.78;;;7.70;96.70;;;;;;4889548;29;20567;-67
2023/11/24 05:59:11;;;;;;;6.00;3.53;;;7.70;96.70;;;;;;4894280;29;20056;-67
2023/11/24 06:01:42;;;;;;;4.85;3.40;;;7.70;96.70;;;;;;4888632;29;20078;-67
2023/11/24 06:04:12;;;;;;;6.40;3.38;;;7.60;96.70;;;;;;4892959;29;20436;-67
2023/11/24 06:06:47;;;;;;;4.75;3.58;;;7.70;96.70;;;;;;4892459;29;20048;-67
2023/11/24 06:09:15;;;;;;;4.60;3.17;;;7.70;96.70;;;;;;4889416;29;20052;-67
2023/11/24 06:11:44;;;;;;;5.55;3.40;;;7.60;96.70;;;;;;4897740;29;20045;-67
2023/11/24 06:14:12;;;;;;;6.32;3.58;;;7.70;96.70;;;;;;4892624;29;20101;-67
2023/11/24 06:16:41;;;;;;;7.28;3.45;;;7.70;96.70;;;;;;4893090;29;20045;-67
2023/11/24 06:19:11;;;;;;;5.57;3.47;;;7.70;96.70;;;;;;4891372;29;20048;-67
2023/11/24 06:21:40;;;;;;;5.47;3.40;;;7.60;96.70;;;;;;4885318;29;20048;-67
2023/11/24 06:24:18;;;;;;;11.93;3.60;;;7.70;96.70;;;;;;4892473;29;20147;-67
2023/11/24 06:26:46;;;;;;;5.53;3.20;;;7.70;96.70;;;;;;4892631;29;20052;-67
2023/11/24 06:29:35;;;;;;;5.35;3.67;;;7.50;96.70;;;;;;4893866;29;20049;-67
2023/11/24 06:32:05;;;;;;;5.45;3.60;;;7.60;96.70;;;;;;4885408;29;20060;-67
2023/11/24 06:34:35;;;;;;;6.50;3.58;;;7.50;96.70;;;;;;4893479;29;20048;-67
2023/11/24 06:37:04;;;;;;;6.43;3.53;;;7.50;96.70;;;;;;4882616;29;20052;-68
2023/11/24 06:39:32;;;;;;;6.45;3.80;;;7.60;96.70;;;;;;4892154;29;20715;-67
2023/11/24 06:42:21;;;;;;;6.57;3.50;;;7.60;96.70;;;;;;4889692;29;20043;-71
2023/11/24 06:44:58;;;;;;;8.93;4.45;;;7.60;96.70;;;;;;4892125;29;20112;-71
2023/11/24 06:47:42;;;;;;;;;;;;;;;;;;;;;
2023/11/24 06:50:58;;;;;;;;;;;;;;;;;;;;;
2023/11/24 06:53:38;;;;;;;6.28;3.47;;;7.50;96.70;;;;;;4885854;29;20044;-71
2023/11/24 06:56:09;;;;;;;7.47;3.35;;;7.60;96.70;;;;;;4892047;29;20063;-71
2023/11/24 06:58:37;;;;;;;5.70;3.08;;;7.50;96.70;;;;;;4891080;29;20051;-71
2023/11/24 07:01:05;;;;;;;5.53;3.00;;;7.50;96.70;;;;;;4887604;29;20128;-71
2023/11/24 07:03:34;;;;;;;5.22;3.28;;;7.40;96.70;;;;;;4891403;29;20044;-71
2023/11/24 07:06:06;;;;;;;4.57;3.08;;;7.40;96.70;;;;;;4886011;29;20044;-71
2023/11/24 07:08:35;;;;;;;6.47;3.60;;;7.40;96.70;;;;;;4892064;29;20055;-71
2023/11/24 07:11:04;;;;;;;6.82;3.90;;;7.40;96.70;;;;;;4892951;29;20072;-71
2023/11/24 07:13:32;;;;;;;7.05;3.63;;;7.50;96.70;;;;;;4884744;29;20537;-71
2023/11/24 07:16:00;;;;;;;4.43;3.30;;;7.50;96.70;;;;;;4891818;29;20109;-71
2023/11/24 07:18:28;;;;;;;8.02;4.03;;;7.50;96.70;;;;;;4891271;29;20428;-71
2023/11/24 07:21:00;;;;;;;5.93;3.45;;;7.60;96.70;;;;;;4887873;29;20528;-71
2023/11/24 07:23:30;;;;;;;7.50;3.65;;;7.60;96.70;;;;;;4881935;29;20182;-71
2023/11/24 07:25:58;;;;;;;5.63;3.75;;;7.70;96.70;;;;;;4889015;29;20488;-71
2023/11/24 07:28:26;;;;;;;4.85;3.10;;;7.80;96.70;;;;;;4890829;29;20548;-71
2023/11/24 07:30:54;;;;;;;5.93;3.25;;;7.90;96.70;;;;;;4887955;29;20568;-71
2023/11/24 07:33:24;;;;;;;4.95;3.58;;;8.00;96.70;;;;;;4887704;29;20777;-71
2023/11/24 07:35:52;;;;;;;5.93;3.55;;;7.90;96.70;;;;;;4891594;29;20041;-71
2023/11/24 07:38:20;;;;;;;5.75;3.83;;;7.90;96.70;;;;;;4892893;29;20052;-71
2023/11/24 07:40:49;;;;;;;8.80;3.60;;;7.90;96.70;;;;;;4888119;29;20116;-72
2023/11/24 07:43:17;;;;;;;5.78;3.75;;;7.90;96.70;;;;;;4881978;29;20052;-73
2023/11/24 07:45:48;;;;;;;5.65;3.97;;;7.90;96.70;;;;;;4890629;29;20049;-74
2023/11/24 07:48:17;;;;;;;6.05;3.85;;;7.90;96.70;;;;;;4885468;29;20056;-75
2023/11/24 07:50:45;;;;;;;4.95;3.50;;;8.00;96.70;;;;;;4887768;29;20406;-73
2023/11/24 07:53:14;;;;;;;6.53;4.05;;;8.10;96.70;;;;;;4891258;29;20088;-74
2023/11/24 07:55:42;;;;;;;4.85;3.65;;;8.20;96.70;;;;;;4892345;29;20050;-74
2023/11/24 07:58:12;;;;;;;5.68;3.47;;;8.30;96.70;;;;;;4893025;29;20536;-74
2023/11/24 08:00:40;;;;;;;7.65;3.75;;;8.40;96.70;;;;;;4892096;29;20587;-75
2023/11/24 08:03:08;;;;;;;6.07;3.83;;;8.50;96.70;;;;;;4889408;29;20127;-74
2023/11/24 08:05:36;;;;;;;5.93;3.85;;;8.40;96.70;;;;;;4890937;29;20104;-74
2023/11/24 08:08:05;;;;;;;7.35;3.58;;;8.40;96.70;;;;;;4901248;29;20049;-73
2023/11/24 08:10:33;;;;;;;6.35;3.40;;;8.50;96.70;;;;;;4892486;29;20059;-74
2023/11/24 08:13:02;;;;;;;6.25;3.53;;;8.60;96.70;;;;;;4891981;29;20045;-74
2023/11/24 08:15:32;;;;;;;4.85;3.33;;;8.80;96.70;;;;;;4885264;29;20057;-78
2023/11/24 08:18:01;;;;;;;6.38;3.63;;;8.80;96.70;;;;;;4890294;29;20041;-79
2023/11/24 08:20:29;;;;;;;8.00;4.00;;;9.00;96.70;;;;;;4893159;29;20144;-75
2023/11/24 08:22:58;;;;;;;6.72;3.97;;;9.00;96.70;;;;;;4886753;29;20052;-74
2023/11/24 08:25:26;;;;;;;5.88;4.30;;;9.10;96.70;;;;;;4890879;29;20492;-74
2023/11/24 08:27:56;;;;;;;6.63;3.80;;;9.20;96.70;;;;;;4890842;29;20049;-73
2023/11/24 08:30:25;;;;;;;5.85;3.95;;;9.20;96.70;;;;;;4891623;29;20386;-70
2023/11/24 08:32:54;;;;;;;7.15;4.20;;;9.10;96.70;;;;;;4892865;29;20041;-70
2023/11/24 08:35:23;;;;;;;6.55;4.40;;;9.20;96.70;;;;;;4892923;29;20124;-71
2023/11/24 08:37:51;;;;;;;5.57;3.63;;;9.20;96.70;;;;;;4896568;29;20056;-71
2023/11/24 08:40:21;;;;;;;6.15;4.00;;;9.40;96.70;;;;;;4895969;29;20053;-70
2023/11/24 08:42:50;;;;;;;6.80;4.50;;;9.60;96.70;;;;;;4895886;29;20056;-74
2023/11/24 08:45:18;;;;;;;8.38;4.90;;;9.70;96.70;;;;;;4895062;29;20048;-74
2023/11/24 08:47:48;;;;;;;8.00;4.65;;;9.80;96.70;;;;;;4895447;29;20096;-73
2023/11/24 08:50:18;;;;;;;6.30;4.22;;;9.80;96.70;;;;;;4895573;29;20057;-71
2023/11/24 08:52:50;;;;;;;4.43;3.60;;;9.90;96.70;;;;;;4895685;29;20057;-72
2023/11/24 08:55:20;;;;;;;7.65;4.78;;;10.00;96.70;;;;;;4895812;29;20536;-75
2023/11/24 08:57:51;;;;;;;5.75;3.55;;;10.10;96.70;;;;;;4889623;29;20049;-74
2023/11/24 09:00:20;;;;;;;4.32;3.40;;;10.30;96.70;;;;;;4896523;29;20052;-75
2023/11/24 09:02:48;;;;;;;7.88;4.55;;;10.40;96.70;;;;;;4896244;29;20739;-75
2023/11/24 09:05:26;;;;;;;5.15;3.83;;;10.50;96.70;;;;;;4896158;29;20052;-74
2023/11/24 09:07:59;;;;;;;10.73;5.63;;;10.50;96.70;;;;;;4901291;29;20056;-76
2023/11/24 09:10:36;;;;;;;9.50;5.68;;;10.60;96.70;;;;;;4904908;29;20051;-75
2023/11/24 09:13:15;;;;;;;9.05;5.28;;;10.70;96.70;;;;;;4912357;29;20041;-76
2023/11/24 09:15:58;;;;;;;8.07;5.28;;;10.60;96.70;;;;;;4896403;29;20040;-75
2023/11/24 09:18:27;;;;;;;7.95;4.80;;;10.70;96.70;;;;;;4897610;29;20052;-75
2023/11/24 09:20:58;;;;;;;8.50;5.28;;;10.70;96.70;;;;;;4902934;29;20523;-75
2023/11/24 09:23:28;;;;;;;7.20;5.28;;;10.80;96.70;;;;;;4894782;29;20527;-72
2023/11/24 09:26:16;;;;;;;7.75;4.60;;;10.90;96.70;;;;;;4888172;29;20140;-71
2023/11/24 09:28:45;;;;;;;7.65;4.40;;;11.10;96.70;;;;;;4892467;29;20509;-71
2023/11/24 09:31:16;;;;;;;6.57;5.00;;;11.20;96.70;;;;;;4889191;29;20503;-72
2023/11/24 09:33:44;;;;;;;7.20;4.82;;;11.30;96.70;;;;;;4894917;29;20048;-71
2023/11/24 09:36:14;;;;;;;7.13;4.97;;;11.40;96.70;;;;;;4902064;29;20453;-73
2023/11/24 09:38:46;;;;;;;7.18;4.70;;;11.60;96.70;;;;;;4895037;29;20052;-71
2023/11/24 09:41:17;;;;;;;9.73;4.85;;;11.60;96.70;;;;;;4889205;29;20091;-69
2023/11/24 09:43:45;;;;;;;7.40;4.47;;;11.70;96.70;;;;;;4889867;29;20056;-70
2023/11/24 09:46:14;;;;;;;7.30;5.20;;;11.80;96.70;;;;;;4892764;29;20100;-69
2023/11/24 09:48:43;;;;;;;7.80;5.32;;;11.80;96.70;;;;;;4888185;29;20043;-69
2023/11/24 09:51:16;;;;;;;10.38;6.38;;;12.00;96.70;;;;;;4889313;29;20045;-70
2023/11/24 09:53:45;;;;;;;10.70;6.32;;;12.00;96.70;;;;;;4890165;29;20123;-70
2023/11/24 09:56:14;;;;;;;9.50;5.82;;;12.10;96.70;;;;;;4889256;29;20124;-67
2023/11/24 09:58:42;;;;;;;9.40;5.75;;;12.20;96.70;;;;;;4894279;29;20052;-70
2023/11/24 10:01:23;;;;;;;11.10;6.30;;;12.20;96.70;;;;;;4894971;29;20053;-82
2023/11/24 10:03:58;;;;;;;7.28;5.55;;;12.30;96.70;;;;;;4881950;29;20063;-76
2023/11/24 10:07:05;;;;;;;6.97;5.32;;;12.40;96.70;;;;;;4902094;29;20055;-82
2023/11/24 10:13:37;;;;;;;;;;;12.60;96.70;;;;;;4897902;29;20053;-77
2023/11/24 10:16:15;;;;;;;7.25;5.00;;;12.70;96.70;;;;;;4893505;29;20418;-70
2023/11/24 10:18:43;;;;;;;8.10;5.60;;;12.80;96.70;;;;;;4886062;29;20104;-70
2023/11/24 10:21:13;;;;;;;7.45;4.72;;;12.90;96.70;;;;;;4893907;29;20049;-71
2023/11/24 10:23:58;;;;;;;7.05;4.95;;;13.00;96.70;;;;;;4892779;29;20072;-71
2023/11/24 10:26:26;;;;;;;7.55;5.00;;;13.10;96.70;;;;;;4893609;29;20509;-71
2023/11/24 10:28:57;;;;;;;8.88;4.90;;;13.20;96.70;;;;;;4890875;29;20056;-76
2023/11/24 10:31:30;;;;;;;6.78;5.20;;;13.20;96.70;;;;;;4888819;29;20033;-72
2023/11/24 10:33:59;;;;;;;6.35;4.93;;;13.30;96.70;;;;;;4886824;29;20049;-73
2023/11/24 10:36:30;;;;;;;6.50;4.30;;;13.40;96.70;;;;;;4885443;29;20109;-72
2023/11/24 10:39:02;;;;;;;7.97;4.80;;;13.40;96.70;;;;;;4885971;29;20063;-72
2023/11/24 10:41:40;;;;;;;5.78;4.40;;;13.60;96.70;;;;;;4901903;29;20048;-72
2023/11/24 10:44:14;;;;;;;6.60;4.10;;;13.60;96.70;;;;;;4892925;29;20049;-72
2023/11/24 10:46:45;;;;;;;5.57;4.30;;;13.60;96.70;;;;;;4893286;29;20045;-73
2023/11/24 10:49:25;;;;;;;6.53;4.03;;;13.70;96.70;;;;;;4896448;29;20044;-72
2023/11/24 10:51:59;;;;;;;5.78;3.65;;;13.80;96.70;;;;;;4895126;29;20112;-72
2023/11/24 10:54:41;;;;;;;5.80;3.40;;;13.80;96.70;;;;;;4891001;29;20044;-72
2023/11/24 10:57:22;;;;;;;3.95;2.75;;;13.90;96.70;;;;;;4889939;29;20060;-72
2023/11/24 10:59:56;;;;;;;4.40;3.00;;;14.00;96.70;;;;;;4895794;29;20045;-72
2023/11/24 11:02:29;;;;;;;7.22;4.03;;;14.00;96.70;;;;;;4901121;29;20063;-72
2023/11/24 11:05:05;;;;;;;5.07;3.60;;;14.10;96.70;;;;;;4900104;29;20049;-72
2023/11/24 11:07:52;;;;;;;5.82;3.95;;;14.20;96.70;;;;;;4889142;29;20045;-72
2023/11/24 11:10:26;;;;;;;5.10;3.47;;;14.30;96.70;;;;;;4893831;29;20072;-72
2023/11/24 11:13:03;;;;;;;5.78;4.05;;;14.20;96.70;;;;;;4888406;29;20519;-73
2023/11/24 11:15:36;;;;;;;8.20;4.05;;;14.30;96.70;;;;;;4893230;29;20584;-73
2023/11/24 11:18:09;;;;;;;6.50;4.07;;;14.40;96.70;;;;;;4893427;29;20504;-72
2023/11/24 11:20:38;;;;;;;6.45;3.92;;;14.50;96.70;;;;;;4893487;29;20421;-72
2023/11/24 11:23:09;;;;;;;5.70;3.70;;;14.60;96.70;;;;;;4893354;29;20738;-72
2023/11/24 11:26:02;;;;;;;7.63;4.43;;;14.70;96.70;;;;;;4893191;29;20550;-73
2023/11/24 11:29:04;;;;;;;6.18;3.72;;;14.80;96.70;;;;;;4891510;29;20079;-73
2023/11/24 11:31:38;;;;;;;6.97;3.70;;;15.00;96.70;;;;;;4898191;29;20116;-73
2023/11/24 11:39:09;;;;;;;6.55;4.22;;;15.00;96.70;;;;;;4893517;29;20065;-77
2023/11/24 11:46:17;;;;;;;8.48;4.70;;;15.30;96.70;;;;;;4916898;29;20094;-76
2023/11/24 12:15:50;;;;;;;8.05;5.32;;;16.20;96.70;;;;;;4790441;29;20081;-76
2023/11/24 12:19:04;;;;;;;6.47;4.40;;;16.40;96.70;;;;;;4819780;29;20066;-77
2023/11/24 12:33:55;;;;;;;5.47;3.38;;;16.80;96.70;;;;;;4821090;29;20057;-78
2023/11/24 12:41:38;;;;;;;3.13;2.30;;;17.10;96.70;;;;;;4855863;29;20163;-77
2023/11/24 12:45:14;;;;;;;3.53;1.90;;;17.10;96.70;;;;;;4840215;29;20447;-77
2023/11/24 13:04:59;;;;;;;5.25;3.30;;;16.80;96.70;;;;;;4853007;29;20090;-77
2023/11/24 13:17:23;;;;;;;5.32;2.55;;;16.80;96.70;;;;;;4761628;29;20076;-77
2023/11/24 13:33:20;;;;;;;5.63;2.50;;;16.50;96.70;;;;;;4802177;29;20058;-76
2023/11/24 13:41:14;;;;;;;6.53;3.80;;;16.30;96.70;;;;;;4803556;29;20107;-76
2023/11/24 13:53:35;;;;;;;5.70;3.75;;;16.10;96.70;;;;;;4818223;29;20057;-75
2023/11/24 13:57:18;;;;;;;6.15;3.80;;;16.00;96.70;;;;;;4809612;29;20118;-77
2023/11/24 14:09:39;;;;;;;6.70;4.20;;;15.90;96.70;;;;;;4809292;29;20037;-76
2023/11/24 14:17:53;;;;;;;8.48;3.13;;;15.90;96.70;;;;;;4851348;29;20048;-76
2023/11/24 14:21:06;;;;;;;7.88;4.22;;;15.80;96.70;;;;;;4830941;29;20057;-76
2023/11/24 14:24:15;;;;;;;4.25;2.65;;;15.80;96.70;;;;;;4846267;29;20049;-76
2023/11/24 14:26:49;;;;;;;4.82;2.88;;;15.80;96.70;;;;;;4848271;29;20057;-75
2023/11/24 14:32:17;;;;;;;9.95;3.95;;;15.70;96.70;;;;;;4826575;29;20514;-73
2023/11/24 14:35:20;;;;;;;7.88;4.15;;;15.70;96.70;;;;;;4853382;29;20057;-71
2023/11/24 14:37:52;;;;;;;5.72;3.20;;;15.70;96.70;;;;;;4847471;29;20065;-71
2023/11/24 14:53:24;;;;;;;;;;;;;;;;;;;;;
2023/11/24 15:01:38;;;;;;;3.70;1.23;;;15.60;96.70;;;;;;4767495;30;20122;-76
2023/11/24 16:04:53;;;;;;;12.38;4.10;;;14.00;96.70;;;;;;4864974;29;20051;-78
2023/11/24 16:07:34;;;;;;;13.90;6.00;;;14.00;96.70;;;;;;4871869;29;20049;-79
2023/11/24 16:10:29;;;;;;;13.15;6.32;;;13.90;96.70;;;;;;4870195;29;20053;-78
2023/11/24 16:13:12;;;;;;;14.63;9.77;;;13.90;96.70;;;;;;4868490;29;20072;-79
2023/11/24 16:16:06;;;;;;;45.38;32.53;;;13.90;96.70;;;;;;4856843;29;20053;-78
2023/11/24 16:18:53;;;;;;;40.92;24.05;;;13.80;96.70;;;;;;4920112;29;20123;-78
2023/11/24 16:21:25;;;;;;;9.85;4.85;;;13.70;96.70;;;;;;4914287;29;20059;-78
2023/11/24 16:23:57;;;;;;;7.30;4.13;;;13.70;96.70;;;;;;4927166;29;20048;-78
2023/11/24 16:27:03;;;;;;;8.85;4.20;;;13.60;96.70;;;;;;4935271;29;20381;-79
2023/11/24 16:29:33;;;;;;;11.45;6.03;;;13.50;96.70;;;;;;4909368;29;20043;-78
2023/11/24 16:32:39;;;;;;;8.73;4.50;;;13.50;96.70;;;;;;4938023;29;20048;-78
2023/11/24 16:35:11;;;;;;;6.75;3.97;;;13.40;96.70;;;;;;4924435;29;20100;-78
2023/11/24 16:38:16;;;;;;;12.27;4.63;;;13.40;96.70;;;;;;4914274;29;20107;-78
2023/11/24 16:40:45;;;;;;;8.52;4.20;;;13.30;96.70;;;;;;4921814;29;20850;-77
2023/11/24 16:43:20;;;;;;;8.52;3.90;;;13.20;96.70;;;;;;4932249;29;20036;-77
2023/11/24 16:45:49;;;;;;;7.65;3.30;;;13.20;96.70;;;;;;4920281;29;20084;-77
2023/11/24 16:48:20;;;;;;;6.22;3.67;;;13.20;96.70;;;;;;4920006;29;20044;-77
2023/11/24 16:50:51;;;;;;;9.43;3.95;;;13.10;96.70;;;;;;4922272;29;20076;-77
2023/11/24 16:53:27;;;;;;;6.50;4.05;;;13.10;96.70;;;;;;4930878;29;20549;-77
2023/11/24 16:55:56;;;;;;;7.20;3.60;;;13.10;96.70;;;;;;4936973;29;20051;-78
2023/11/24 16:58:33;;;;;;;11.07;5.80;;;13.00;96.70;;;;;;4931496;29;20040;-78
2023/11/24 17:01:07;;;;;;;9.23;4.68;;;13.10;96.70;;;;;;4925681;29;20052;-77
2023/11/24 17:03:44;;;;;;;8.32;5.53;;;13.10;96.70;;;;;;4900830;29;20512;-77
2023/11/24 17:07:03;;;;;;;10.65;7.25;;;13.10;96.70;;;;;;4925213;29;20048;-77
2023/11/24 17:09:33;;;;;;;18.92;10.57;;;13.10;96.70;;;;;;4930382;29;20416;-77
2023/11/24 17:12:26;;;;;;;26.35;17.35;;;13.10;96.70;;;;;;4927283;29;20051;-77
2023/11/24 17:15:31;;;;;;;27.45;16.65;;;13.10;96.70;;;;;;4935714;29;20058;-78
2023/11/24 17:18:01;;;;;;;26.15;16.75;;;13.10;96.70;;;;;;4934010;29;20835;-77
2023/11/24 17:20:29;;;;;;;27.25;16.65;;;13.00;96.70;;;;;;4925990;29;20446;-77
2023/11/24 17:22:57;;;;;;;22.95;14.65;;;13.00;96.70;;;;;;4931540;29;20069;-77
2023/11/24 17:25:34;;;;;;;29.65;18.70;;;12.90;96.70;;;;;;4921793;29;20065;-78
2023/11/24 17:29:02;;;;;;;23.38;15.43;;;12.80;96.70;;;;;;4918054;29;20055;-78
2023/11/24 17:31:33;;;;;;;25.10;15.45;;;12.90;96.70;;;;;;4915714;29;20048;-77
2023/11/24 17:34:01;;;;;;;23.42;14.93;;;12.90;96.70;;;;;;4919427;29;20070;-75
2023/11/24 17:36:30;;;;;;;20.88;14.43;;;12.90;96.70;;;;;;4924487;29;20046;-74
2023/11/24 17:39:14;;;;;;;23.27;14.68;;;12.90;96.70;;;;;;4928405;29;20623;-78
2023/11/24 17:41:44;;;;;;;19.60;14.38;;;12.80;96.70;;;;;;4936486;29;20123;-80
2023/11/24 17:44:15;;;;;;;21.50;14.18;;;12.80;96.70;;;;;;4925731;29;20454;-80
2023/11/24 17:46:45;;;;;;;23.95;15.32;;;12.80;96.70;;;;;;4924745;29;20044;-74
2023/11/24 17:49:40;;;;;;;23.25;15.65;;;12.70;96.70;;;;;;4929657;29;20032;-78
2023/11/24 17:52:15;;;;;;;21.70;15.07;;;12.60;96.70;;;;;;4919395;29;20098;-78
2023/11/24 17:55:05;;;;;;;19.95;14.32;;;12.50;96.70;;;;;;4936088;29;20039;-78
2023/11/24 17:57:48;;;;;;;62.22;47.83;;;12.50;96.70;;;;;;4926521;29;20137;-79
2023/11/24 18:00:24;;;;;;;51.42;36.72;;;12.50;96.70;;;;;;4935553;29;20429;-79
2023/11/24 18:06:34;;;;;;;29.23;20.63;;;12.50;96.70;;;;;;4936125;29;20099;-80